sensor_id;sensor_type;location;lat;lon;timestamp;temperature;humidity
44037;DHT22;62488;-37.670;-63.532;2023-03-19T00:00:36;16.60;99.90
44037;DHT22;62488;-37.670;-63.532;2023-03-19T00:03:02;16.60;99.90
44037;DHT22;62488;-37.670;-63.532;2023-03-19T00:05:29;16.60;99.90
44037;DHT22;62488;-37.670;-63.532;2023-03-19T00:07:56;16.50;99.90
44037;DHT22;62488;-37.670;-63.532;2023-03-19T00:10:23;16.50;99.90
44037;DHT22;62488;-37.670;-63.532;2023-03-19T00:12:51;16.50;99.90
44037;DHT22;62488;-37.670;-63.532;2023-03-19T00:15:18;16.50;99.90
44037;DHT22;62488;-37.670;-63.532;2023-03-19T00:17:45;16.50;99.90
44037;DHT22;62488;-37.670;-63.532;2023-03-19T00:20:12;16.40;99.90
44037;DHT22;62488;-37.670;-63.532;2023-03-19T00:22:40;16.50;99.90
44037;DHT22;62488;-37.670;-63.532;2023-03-19T00:25:07;16.40;99.90
44037;DHT22;62488;-37.670;-63.532;2023-03-19T00:27:36;16.40;99.90
44037;DHT22;62488;-37.670;-63.532;2023-03-19T00:30:04;16.40;99.90
44037;DHT22;62488;-37.670;-63.532;2023-03-19T00:32:32;16.40;99.90
44037;DHT22;62488;-37.670;-63.532;2023-03-19T00:34:59;16.40;99.90
44037;DHT22;62488;-37.670;-63.532;2023-03-19T00:37:26;16.40;99.90
44037;DHT22;62488;-37.670;-63.532;2023-03-19T00:39:53;16.40;99.90
44037;DHT22;62488;-37.670;-63.532;2023-03-19T00:42:21;16.40;99.90
44037;DHT22;62488;-37.670;-63.532;2023-03-19T00:44:48;16.40;99.90
44037;DHT22;62488;-37.670;-63.532;2023-03-19T00:47:15;16.30;99.90
44037;DHT22;62488;-37.670;-63.532;2023-03-19T00:49:42;16.40;99.90
44037;DHT22;62488;-37.670;-63.532;2023-03-19T00:52:09;16.40;99.90
44037;DHT22;62488;-37.670;-63.532;2023-03-19T00:54:36;16.40;99.90
44037;DHT22;62488;-37.670;-63.532;2023-03-19T00:57:03;16.40;99.90
44037;DHT22;62488;-37.670;-63.532;2023-03-19T00:59:30;16.40;99.90
44037;DHT22;62488;-37.670;-63.532;2023-03-19T01:01:59;16.40;99.90
44037;DHT22;62488;-37.670;-63.532;2023-03-19T01:04:26;16.30;99.90
44037;DHT22;62488;-37.670;-63.532;2023-03-19T01:06:53;16.30;99.90
44037;DHT22;62488;-37.670;-63.532;2023-03-19T01:09:21;16.30;99.90
44037;DHT22;62488;-37.670;-63.532;2023-03-19T01:11:48;16.40;99.90
44037;DHT22;62488;-37.670;-63.532;2023-03-19T01:14:16;16.40;99.90
44037;DHT22;62488;-37.670;-63.532;2023-03-19T01:16:43;16.30;99.90
44037;DHT22;62488;-37.670;-63.532;2023-03-19T01:19:11;16.30;99.90
44037;DHT22;62488;-37.670;-63.532;2023-03-19T01:21:39;16.20;99.90
44037;DHT22;62488;-37.670;-63.532;2023-03-19T01:24:12;16.20;99.90
44037;DHT22;62488;-37.670;-63.532;2023-03-19T01:26:39;16.20;99.90
44037;DHT22;62488;-37.670;-63.532;2023-03-19T01:29:06;16.20;99.90
44037;DHT22;62488;-37.670;-63.532;2023-03-19T01:31:33;16.20;99.90
44037;DHT22;62488;-37.670;-63.532;2023-03-19T01:34:01;16.10;99.90
44037;DHT22;62488;-37.670;-63.532;2023-03-19T01:36:28;16.10;99.90
44037;DHT22;62488;-37.670;-63.532;2023-03-19T01:38:55;16.10;99.90
44037;DHT22;62488;-37.670;-63.532;2023-03-19T01:41:23;16.10;99.90
44037;DHT22;62488;-37.670;-63.532;2023-03-19T01:43:50;16.10;99.90
44037;DHT22;62488;-37.670;-63.532;2023-03-19T01:46:35;16.20;99.90
44037;DHT22;62488;-37.670;-63.532;2023-03-19T01:49:06;16.10;99.90
44037;DHT22;62488;-37.670;-63.532;2023-03-19T01:51:38;16.10;99.90
44037;DHT22;62488;-37.670;-63.532;2023-03-19T01:54:18;16.10;99.90
44037;DHT22;62488;-37.670;-63.532;2023-03-19T01:56:47;16.10;99.90
44037;DHT22;62488;-37.670;-63.532;2023-03-19T02:02:17;16.10;99.90
44037;DHT22;62488;-37.670;-63.532;2023-03-19T02:04:50;16.10;99.90
44037;DHT22;62488;-37.670;-63.532;2023-03-19T02:07:19;16.10;99.90
44037;DHT22;62488;-37.670;-63.532;2023-03-19T02:09:47;16.10;99.90
44037;DHT22;62488;-37.670;-63.532;2023-03-19T02:25:20;16.00;99.90
44037;DHT22;62488;-37.670;-63.532;2023-03-19T02:27:50;16.10;99.90
44037;DHT22;62488;-37.670;-63.532;2023-03-19T02:32:50;16.00;99.90
44037;DHT22;62488;-37.670;-63.532;2023-03-19T02:35:18;16.00;99.90
44037;DHT22;62488;-37.670;-63.532;2023-03-19T02:37:45;16.10;99.90
44037;DHT22;62488;-37.670;-63.532;2023-03-19T02:40:42;16.00;99.90
44037;DHT22;62488;-37.670;-63.532;2023-03-19T02:43:09;16.00;99.90
44037;DHT22;62488;-37.670;-63.532;2023-03-19T02:45:36;16.00;99.90
44037;DHT22;62488;-37.670;-63.532;2023-03-19T02:48:04;16.00;99.90
44037;DHT22;62488;-37.670;-63.532;2023-03-19T02:50:31;16.00;99.90
44037;DHT22;62488;-37.670;-63.532;2023-03-19T02:52:58;16.00;99.90
44037;DHT22;62488;-37.670;-63.532;2023-03-19T02:55:25;16.00;99.90
44037;DHT22;62488;-37.670;-63.532;2023-03-19T02:57:52;16.00;99.90
44037;DHT22;62488;-37.670;-63.532;2023-03-19T03:00:20;16.00;99.90
44037;DHT22;62488;-37.670;-63.532;2023-03-19T03:02:47;16.00;99.90
44037;DHT22;62488;-37.670;-63.532;2023-03-19T03:05:14;16.00;99.90
44037;DHT22;62488;-37.670;-63.532;2023-03-19T03:07:41;16.00;99.90
44037;DHT22;62488;-37.670;-63.532;2023-03-19T03:10:10;16.00;99.90
44037;DHT22;62488;-37.670;-63.532;2023-03-19T03:12:37;15.90;99.90
44037;DHT22;62488;-37.670;-63.532;2023-03-19T03:15:05;15.90;99.90
44037;DHT22;62488;-37.670;-63.532;2023-03-19T03:17:37;16.00;99.90
44037;DHT22;62488;-37.670;-63.532;2023-03-19T03:20:06;15.90;99.90
44037;DHT22;62488;-37.670;-63.532;2023-03-19T03:22:34;15.90;99.90
44037;DHT22;62488;-37.670;-63.532;2023-03-19T03:25:01;15.90;99.90
44037;DHT22;62488;-37.670;-63.532;2023-03-19T03:27:28;15.90;99.90
44037;DHT22;62488;-37.670;-63.532;2023-03-19T03:29:55;15.90;99.90
44037;DHT22;62488;-37.670;-63.532;2023-03-19T03:32:22;15.90;99.90
44037;DHT22;62488;-37.670;-63.532;2023-03-19T03:34:49;15.90;99.90
44037;DHT22;62488;-37.670;-63.532;2023-03-19T03:37:16;15.90;99.90
44037;DHT22;62488;-37.670;-63.532;2023-03-19T03:39:44;15.90;99.90
44037;DHT22;62488;-37.670;-63.532;2023-03-19T03:42:12;15.90;99.90
44037;DHT22;62488;-37.670;-63.532;2023-03-19T03:44:38;15.90;99.90
44037;DHT22;62488;-37.670;-63.532;2023-03-19T03:47:06;15.90;99.90
44037;DHT22;62488;-37.670;-63.532;2023-03-19T03:49:33;15.90;99.90
44037;DHT22;62488;-37.670;-63.532;2023-03-19T03:52:00;15.90;99.90
44037;DHT22;62488;-37.670;-63.532;2023-03-19T03:54:27;15.90;99.90
44037;DHT22;62488;-37.670;-63.532;2023-03-19T03:56:54;15.80;99.90
44037;DHT22;62488;-37.670;-63.532;2023-03-19T03:59:21;15.80;99.90
44037;DHT22;62488;-37.670;-63.532;2023-03-19T04:01:49;15.90;99.90
44037;DHT22;62488;-37.670;-63.532;2023-03-19T04:04:16;15.80;99.90
44037;DHT22;62488;-37.670;-63.532;2023-03-19T04:06:45;15.70;99.90
44037;DHT22;62488;-37.670;-63.532;2023-03-19T04:09:12;15.70;99.90
44037;DHT22;62488;-37.670;-63.532;2023-03-19T04:11:40;15.70;99.90
44037;DHT22;62488;-37.670;-63.532;2023-03-19T04:14:07;15.70;99.90
44037;DHT22;62488;-37.670;-63.532;2023-03-19T04:16:34;15.80;99.90
44037;DHT22;62488;-37.670;-63.532;2023-03-19T04:19:01;15.80;99.90
44037;DHT22;62488;-37.670;-63.532;2023-03-19T04:21:28;15.70;99.90
44037;DHT22;62488;-37.670;-63.532;2023-03-19T04:23:56;15.70;99.90
44037;DHT22;62488;-37.670;-63.532;2023-03-19T04:26:23;15.70;99.90
44037;DHT22;62488;-37.670;-63.532;2023-03-19T04:28:50;15.70;99.90
44037;DHT22;62488;-37.670;-63.532;2023-03-19T04:31:17;15.70;99.90
44037;DHT22;62488;-37.670;-63.532;2023-03-19T04:33:44;15.70;99.90
44037;DHT22;62488;-37.670;-63.532;2023-03-19T04:36:11;15.70;99.90
44037;DHT22;62488;-37.670;-63.532;2023-03-19T04:38:38;15.70;99.90
44037;DHT22;62488;-37.670;-63.532;2023-03-19T04:41:05;15.80;99.90
44037;DHT22;62488;-37.670;-63.532;2023-03-19T04:43:32;15.70;99.90
44037;DHT22;62488;-37.670;-63.532;2023-03-19T04:45:58;15.70;99.90
44037;DHT22;62488;-37.670;-63.532;2023-03-19T04:48:26;15.70;99.90
44037;DHT22;62488;-37.670;-63.532;2023-03-19T04:50:53;15.70;99.90
44037;DHT22;62488;-37.670;-63.532;2023-03-19T04:53:22;15.70;99.90
44037;DHT22;62488;-37.670;-63.532;2023-03-19T04:55:50;15.70;99.90
44037;DHT22;62488;-37.670;-63.532;2023-03-19T04:58:17;15.70;99.90
44037;DHT22;62488;-37.670;-63.532;2023-03-19T05:00:44;15.70;99.90
44037;DHT22;62488;-37.670;-63.532;2023-03-19T05:03:13;15.70;99.90
44037;DHT22;62488;-37.670;-63.532;2023-03-19T05:05:41;15.70;99.90
44037;DHT22;62488;-37.670;-63.532;2023-03-19T05:08:08;15.60;99.90
44037;DHT22;62488;-37.670;-63.532;2023-03-19T05:10:36;15.60;99.90
44037;DHT22;62488;-37.670;-63.532;2023-03-19T05:13:03;15.60;99.90
44037;DHT22;62488;-37.670;-63.532;2023-03-19T05:15:30;15.60;99.90
44037;DHT22;62488;-37.670;-63.532;2023-03-19T05:17:57;15.60;99.90
44037;DHT22;62488;-37.670;-63.532;2023-03-19T05:20:24;15.70;99.90
44037;DHT22;62488;-37.670;-63.532;2023-03-19T05:22:53;15.60;99.90
44037;DHT22;62488;-37.670;-63.532;2023-03-19T05:25:20;15.70;99.90
44037;DHT22;62488;-37.670;-63.532;2023-03-19T05:27:47;15.70;99.90
44037;DHT22;62488;-37.670;-63.532;2023-03-19T05:30:14;15.70;99.90
44037;DHT22;62488;-37.670;-63.532;2023-03-19T05:32:43;15.70;99.90
44037;DHT22;62488;-37.670;-63.532;2023-03-19T05:35:12;15.70;99.90
44037;DHT22;62488;-37.670;-63.532;2023-03-19T05:37:39;15.70;99.90
44037;DHT22;62488;-37.670;-63.532;2023-03-19T05:40:07;15.70;99.90
44037;DHT22;62488;-37.670;-63.532;2023-03-19T05:42:34;15.70;99.90
44037;DHT22;62488;-37.670;-63.532;2023-03-19T05:45:02;15.60;99.90
44037;DHT22;62488;-37.670;-63.532;2023-03-19T05:47:29;15.70;99.90
44037;DHT22;62488;-37.670;-63.532;2023-03-19T05:49:57;15.70;99.90
44037;DHT22;62488;-37.670;-63.532;2023-03-19T05:52:24;15.70;99.90
44037;DHT22;62488;-37.670;-63.532;2023-03-19T05:54:51;15.70;99.90
44037;DHT22;62488;-37.670;-63.532;2023-03-19T05:57:18;15.60;99.90
44037;DHT22;62488;-37.670;-63.532;2023-03-19T05:59:45;15.60;99.90
44037;DHT22;62488;-37.670;-63.532;2023-03-19T06:02:13;15.70;99.90
44037;DHT22;62488;-37.670;-63.532;2023-03-19T06:04:40;15.70;99.90
44037;DHT22;62488;-37.670;-63.532;2023-03-19T06:07:07;15.60;99.90
44037;DHT22;62488;-37.670;-63.532;2023-03-19T06:09:34;15.70;99.90
44037;DHT22;62488;-37.670;-63.532;2023-03-19T06:12:01;15.70;99.90
44037;DHT22;62488;-37.670;-63.532;2023-03-19T06:14:28;15.70;99.90
44037;DHT22;62488;-37.670;-63.532;2023-03-19T06:16:55;15.70;99.90
44037;DHT22;62488;-37.670;-63.532;2023-03-19T06:19:22;15.60;99.90
44037;DHT22;62488;-37.670;-63.532;2023-03-19T06:21:49;15.70;99.90
44037;DHT22;62488;-37.670;-63.532;2023-03-19T06:24:16;15.60;99.90
44037;DHT22;62488;-37.670;-63.532;2023-03-19T06:26:43;15.60;99.90
44037;DHT22;62488;-37.670;-63.532;2023-03-19T06:29:11;15.60;99.90
44037;DHT22;62488;-37.670;-63.532;2023-03-19T06:31:38;15.60;99.90
44037;DHT22;62488;-37.670;-63.532;2023-03-19T06:34:07;15.60;99.90
44037;DHT22;62488;-37.670;-63.532;2023-03-19T06:36:34;15.60;99.90
44037;DHT22;62488;-37.670;-63.532;2023-03-19T06:39:01;15.60;99.90
44037;DHT22;62488;-37.670;-63.532;2023-03-19T06:41:28;15.60;99.90
44037;DHT22;62488;-37.670;-63.532;2023-03-19T06:43:55;15.60;99.90
44037;DHT22;62488;-37.670;-63.532;2023-03-19T06:46:22;15.60;99.90
44037;DHT22;62488;-37.670;-63.532;2023-03-19T06:48:49;15.60;99.90
44037;DHT22;62488;-37.670;-63.532;2023-03-19T06:51:17;15.60;99.90
44037;DHT22;62488;-37.670;-63.532;2023-03-19T06:53:44;15.60;99.90
44037;DHT22;62488;-37.670;-63.532;2023-03-19T06:56:11;15.60;99.90
44037;DHT22;62488;-37.670;-63.532;2023-03-19T06:58:38;15.60;99.90
44037;DHT22;62488;-37.670;-63.532;2023-03-19T07:01:05;15.60;99.90
44037;DHT22;62488;-37.670;-63.532;2023-03-19T07:03:33;15.60;99.90
44037;DHT22;62488;-37.670;-63.532;2023-03-19T07:06:00;15.60;99.90
44037;DHT22;62488;-37.670;-63.532;2023-03-19T07:08:27;15.60;99.90
44037;DHT22;62488;-37.670;-63.532;2023-03-19T07:11:06;15.60;99.90
44037;DHT22;62488;-37.670;-63.532;2023-03-19T07:13:33;15.60;99.90
44037;DHT22;62488;-37.670;-63.532;2023-03-19T07:16:00;15.60;99.90
44037;DHT22;62488;-37.670;-63.532;2023-03-19T07:18:27;15.60;99.90
44037;DHT22;62488;-37.670;-63.532;2023-03-19T07:20:54;15.60;99.90
44037;DHT22;62488;-37.670;-63.532;2023-03-19T07:23:21;15.50;99.90
44037;DHT22;62488;-37.670;-63.532;2023-03-19T07:25:48;15.50;99.90
44037;DHT22;62488;-37.670;-63.532;2023-03-19T07:28:15;15.40;99.90
44037;DHT22;62488;-37.670;-63.532;2023-03-19T07:30:42;15.40;99.90
44037;DHT22;62488;-37.670;-63.532;2023-03-19T07:33:10;15.40;99.90
44037;DHT22;62488;-37.670;-63.532;2023-03-19T07:35:37;15.40;99.90
44037;DHT22;62488;-37.670;-63.532;2023-03-19T07:38:04;15.40;99.90
44037;DHT22;62488;-37.670;-63.532;2023-03-19T07:40:31;15.40;99.90
44037;DHT22;62488;-37.670;-63.532;2023-03-19T07:42:58;15.40;99.90
44037;DHT22;62488;-37.670;-63.532;2023-03-19T07:45:25;15.30;99.90
44037;DHT22;62488;-37.670;-63.532;2023-03-19T07:47:52;15.30;99.90
44037;DHT22;62488;-37.670;-63.532;2023-03-19T07:50:19;15.30;99.90
44037;DHT22;62488;-37.670;-63.532;2023-03-19T07:52:47;15.30;99.90
44037;DHT22;62488;-37.670;-63.532;2023-03-19T07:55:15;15.30;99.90
44037;DHT22;62488;-37.670;-63.532;2023-03-19T07:57:42;15.30;99.90
44037;DHT22;62488;-37.670;-63.532;2023-03-19T08:00:10;15.20;99.90
44037;DHT22;62488;-37.670;-63.532;2023-03-19T08:02:38;15.20;99.90
44037;DHT22;62488;-37.670;-63.532;2023-03-19T08:05:05;15.20;99.90
44037;DHT22;62488;-37.670;-63.532;2023-03-19T08:07:33;15.20;99.90
44037;DHT22;62488;-37.670;-63.532;2023-03-19T08:10:00;15.10;99.90
44037;DHT22;62488;-37.670;-63.532;2023-03-19T08:12:27;15.10;99.90
44037;DHT22;62488;-37.670;-63.532;2023-03-19T08:14:54;15.10;99.90
44037;DHT22;62488;-37.670;-63.532;2023-03-19T08:17:21;15.10;99.90
44037;DHT22;62488;-37.670;-63.532;2023-03-19T08:19:48;15.00;99.90
44037;DHT22;62488;-37.670;-63.532;2023-03-19T08:22:15;15.00;99.90
44037;DHT22;62488;-37.670;-63.532;2023-03-19T08:24:42;15.00;99.90
44037;DHT22;62488;-37.670;-63.532;2023-03-19T08:27:09;15.00;99.90
44037;DHT22;62488;-37.670;-63.532;2023-03-19T08:29:36;15.00;99.90
44037;DHT22;62488;-37.670;-63.532;2023-03-19T08:32:03;15.00;99.90
44037;DHT22;62488;-37.670;-63.532;2023-03-19T08:34:32;15.00;99.90
44037;DHT22;62488;-37.670;-63.532;2023-03-19T08:36:59;15.00;99.90
44037;DHT22;62488;-37.670;-63.532;2023-03-19T08:39:26;15.00;99.90
44037;DHT22;62488;-37.670;-63.532;2023-03-19T08:41:53;14.90;99.90
44037;DHT22;62488;-37.670;-63.532;2023-03-19T08:44:20;14.90;99.90
44037;DHT22;62488;-37.670;-63.532;2023-03-19T08:46:47;14.90;99.90
44037;DHT22;62488;-37.670;-63.532;2023-03-19T08:49:15;14.90;99.90
44037;DHT22;62488;-37.670;-63.532;2023-03-19T08:51:42;14.90;99.90
44037;DHT22;62488;-37.670;-63.532;2023-03-19T08:54:09;14.90;99.90
44037;DHT22;62488;-37.670;-63.532;2023-03-19T08:56:39;14.90;99.90
44037;DHT22;62488;-37.670;-63.532;2023-03-19T08:59:06;14.90;99.90
44037;DHT22;62488;-37.670;-63.532;2023-03-19T09:01:33;14.90;99.90
44037;DHT22;62488;-37.670;-63.532;2023-03-19T09:04:00;14.90;99.90
44037;DHT22;62488;-37.670;-63.532;2023-03-19T09:06:27;14.90;99.90
44037;DHT22;62488;-37.670;-63.532;2023-03-19T09:08:54;14.90;99.90
44037;DHT22;62488;-37.670;-63.532;2023-03-19T09:11:21;14.90;99.90
44037;DHT22;62488;-37.670;-63.532;2023-03-19T09:13:49;14.90;99.90
44037;DHT22;62488;-37.670;-63.532;2023-03-19T09:16:16;14.90;99.90
44037;DHT22;62488;-37.670;-63.532;2023-03-19T09:18:43;14.80;99.90
44037;DHT22;62488;-37.670;-63.532;2023-03-19T09:21:10;14.90;99.90
44037;DHT22;62488;-37.670;-63.532;2023-03-19T09:23:37;14.80;99.90
44037;DHT22;62488;-37.670;-63.532;2023-03-19T09:26:04;14.80;99.90
44037;DHT22;62488;-37.670;-63.532;2023-03-19T09:28:31;14.80;99.90
44037;DHT22;62488;-37.670;-63.532;2023-03-19T09:30:58;14.90;99.90
44037;DHT22;62488;-37.670;-63.532;2023-03-19T09:33:32;14.80;99.90
44037;DHT22;62488;-37.670;-63.532;2023-03-19T09:35:59;14.80;99.90
44037;DHT22;62488;-37.670;-63.532;2023-03-19T09:38:26;14.80;99.90
44037;DHT22;62488;-37.670;-63.532;2023-03-19T09:41:12;14.80;99.90
44037;DHT22;62488;-37.670;-63.532;2023-03-19T09:46:18;14.90;99.90
44037;DHT22;62488;-37.670;-63.532;2023-03-19T09:48:50;14.90;99.90
44037;DHT22;62488;-37.670;-63.532;2023-03-19T09:51:34;14.90;99.90
44037;DHT22;62488;-37.670;-63.532;2023-03-19T09:54:20;14.90;99.90
44037;DHT22;62488;-37.670;-63.532;2023-03-19T09:56:48;14.90;99.90
44037;DHT22;62488;-37.670;-63.532;2023-03-19T09:59:21;14.90;99.90
44037;DHT22;62488;-37.670;-63.532;2023-03-19T10:01:57;14.90;99.90
44037;DHT22;62488;-37.670;-63.532;2023-03-19T10:07:04;14.90;99.90
44037;DHT22;62488;-37.670;-63.532;2023-03-19T10:15:33;14.90;99.90
44037;DHT22;62488;-37.670;-63.532;2023-03-19T10:18:16;15.00;99.90
44037;DHT22;62488;-37.670;-63.532;2023-03-19T10:21:06;14.90;99.90
44037;DHT22;62488;-37.670;-63.532;2023-03-19T10:26:14;14.90;99.90
44037;DHT22;62488;-37.670;-63.532;2023-03-19T10:28:44;14.90;99.90
44037;DHT22;62488;-37.670;-63.532;2023-03-19T10:31:25;14.90;99.90
44037;DHT22;62488;-37.670;-63.532;2023-03-19T10:34:10;15.00;99.90
44037;DHT22;62488;-37.670;-63.532;2023-03-19T10:36:38;14.90;99.90
44037;DHT22;62488;-37.670;-63.532;2023-03-19T10:51:46;15.00;99.90
44037;DHT22;62488;-37.670;-63.532;2023-03-19T10:54:21;15.10;99.90
44037;DHT22;62488;-37.670;-63.532;2023-03-19T10:56:49;15.10;99.90
44037;DHT22;62488;-37.670;-63.532;2023-03-19T10:59:24;15.00;99.90
44037;DHT22;62488;-37.670;-63.532;2023-03-19T11:01:57;15.10;99.90
44037;DHT22;62488;-37.670;-63.532;2023-03-19T11:04:25;15.20;99.90
44037;DHT22;62488;-37.670;-63.532;2023-03-19T11:07:11;15.20;99.90
44037;DHT22;62488;-37.670;-63.532;2023-03-19T11:09:47;15.20;99.90
44037;DHT22;62488;-37.670;-63.532;2023-03-19T11:12:23;15.20;99.90
44037;DHT22;62488;-37.670;-63.532;2023-03-19T11:14:55;15.30;99.90
44037;DHT22;62488;-37.670;-63.532;2023-03-19T11:17:39;15.30;99.90
44037;DHT22;62488;-37.670;-63.532;2023-03-19T11:20:31;15.30;99.90
44037;DHT22;62488;-37.670;-63.532;2023-03-19T11:23:00;15.30;99.90
44037;DHT22;62488;-37.670;-63.532;2023-03-19T11:28:17;15.40;99.90
44037;DHT22;62488;-37.670;-63.532;2023-03-19T11:47:38;15.50;99.90
44037;DHT22;62488;-37.670;-63.532;2023-03-19T11:50:33;15.60;99.90
44037;DHT22;62488;-37.670;-63.532;2023-03-19T11:53:26;15.60;99.90
44037;DHT22;62488;-37.670;-63.532;2023-03-19T11:56:28;15.60;99.90
44037;DHT22;62488;-37.670;-63.532;2023-03-19T12:31:48;15.80;99.90
44037;DHT22;62488;-37.670;-63.532;2023-03-19T12:36:51;15.90;99.90
44037;DHT22;62488;-37.670;-63.532;2023-03-19T12:39:28;16.00;99.90
44037;DHT22;62488;-37.670;-63.532;2023-03-19T12:41:57;16.00;99.90
44037;DHT22;62488;-37.670;-63.532;2023-03-19T12:44:33;16.10;99.90
44037;DHT22;62488;-37.670;-63.532;2023-03-19T12:47:33;16.10;99.90
44037;DHT22;62488;-37.670;-63.532;2023-03-19T12:50:06;16.20;99.90
44037;DHT22;62488;-37.670;-63.532;2023-03-19T12:52:40;16.30;99.90
44037;DHT22;62488;-37.670;-63.532;2023-03-19T12:57:59;16.40;99.90
44037;DHT22;62488;-37.670;-63.532;2023-03-19T13:03:37;16.50;99.90
44037;DHT22;62488;-37.670;-63.532;2023-03-19T13:06:54;16.50;99.90
44037;DHT22;62488;-37.670;-63.532;2023-03-19T13:21:04;16.90;99.90
44037;DHT22;62488;-37.670;-63.532;2023-03-19T13:23:36;17.10;99.90
44037;DHT22;62488;-37.670;-63.532;2023-03-19T13:26:08;17.10;99.90
44037;DHT22;62488;-37.670;-63.532;2023-03-19T13:31:51;17.30;99.90
44037;DHT22;62488;-37.670;-63.532;2023-03-19T13:34:26;17.30;99.90
44037;DHT22;62488;-37.670;-63.532;2023-03-19T13:39:33;17.50;99.90
44037;DHT22;62488;-37.670;-63.532;2023-03-19T13:44:53;17.70;99.90
44037;DHT22;62488;-37.670;-63.532;2023-03-19T13:52:52;18.10;99.90
44037;DHT22;62488;-37.670;-63.532;2023-03-19T14:03:28;18.00;99.90
44037;DHT22;62488;-37.670;-63.532;2023-03-19T14:05:57;17.90;99.90
44037;DHT22;62488;-37.670;-63.532;2023-03-19T14:08:44;17.90;99.90
44037;DHT22;62488;-37.670;-63.532;2023-03-19T14:11:22;17.90;99.90
44037;DHT22;62488;-37.670;-63.532;2023-03-19T14:13:51;17.90;99.90
44037;DHT22;62488;-37.670;-63.532;2023-03-19T14:16:24;18.10;99.90
44037;DHT22;62488;-37.670;-63.532;2023-03-19T14:18:56;18.20;99.90
44037;DHT22;62488;-37.670;-63.532;2023-03-19T14:22:00;18.20;99.90
44037;DHT22;62488;-37.670;-63.532;2023-03-19T14:27:03;18.30;99.90
44037;DHT22;62488;-37.670;-63.532;2023-03-19T14:29:42;18.30;99.90
44037;DHT22;62488;-37.670;-63.532;2023-03-19T14:32:21;18.30;99.90
44037;DHT22;62488;-37.670;-63.532;2023-03-19T14:34:50;18.30;99.90
44037;DHT22;62488;-37.670;-63.532;2023-03-19T14:37:21;18.30;99.90
44037;DHT22;62488;-37.670;-63.532;2023-03-19T14:39:57;18.20;99.90
44037;DHT22;62488;-37.670;-63.532;2023-03-19T14:50:49;18.10;99.90
44037;DHT22;62488;-37.670;-63.532;2023-03-19T14:55:53;18.30;99.90
44037;DHT22;62488;-37.670;-63.532;2023-03-19T14:58:20;18.20;99.90
44037;DHT22;62488;-37.670;-63.532;2023-03-19T15:00:53;18.10;99.90
44037;DHT22;62488;-37.670;-63.532;2023-03-19T15:03:32;18.20;99.90
44037;DHT22;62488;-37.670;-63.532;2023-03-19T15:06:01;18.30;99.90
44037;DHT22;62488;-37.670;-63.532;2023-03-19T15:08:31;18.30;99.90
44037;DHT22;62488;-37.670;-63.532;2023-03-19T15:19:08;18.30;99.90
44037;DHT22;62488;-37.670;-63.532;2023-03-19T15:21:37;18.50;99.90
44037;DHT22;62488;-37.670;-63.532;2023-03-19T15:24:05;18.60;99.90
44037;DHT22;62488;-37.670;-63.532;2023-03-19T15:26:38;18.70;99.90
44037;DHT22;62488;-37.670;-63.532;2023-03-19T15:29:06;18.80;99.90
44037;DHT22;62488;-37.670;-63.532;2023-03-19T15:31:49;18.90;99.90
44037;DHT22;62488;-37.670;-63.532;2023-03-19T15:34:27;19.00;99.90
44037;DHT22;62488;-37.670;-63.532;2023-03-19T15:37:00;18.90;99.90
44037;DHT22;62488;-37.670;-63.532;2023-03-19T15:39:33;18.90;99.90
44037;DHT22;62488;-37.670;-63.532;2023-03-19T15:42:03;18.90;99.90
44037;DHT22;62488;-37.670;-63.532;2023-03-19T15:44:38;19.00;99.90
44037;DHT22;62488;-37.670;-63.532;2023-03-19T15:47:15;19.20;99.90
44037;DHT22;62488;-37.670;-63.532;2023-03-19T15:49:51;19.70;99.90
44037;DHT22;62488;-37.670;-63.532;2023-03-19T15:52:20;20.10;99.90
44037;DHT22;62488;-37.670;-63.532;2023-03-19T15:54:48;20.50;99.90
44037;DHT22;62488;-37.670;-63.532;2023-03-19T15:57:16;21.10;99.90
44037;DHT22;62488;-37.670;-63.532;2023-03-19T15:59:43;21.60;99.90
44037;DHT22;62488;-37.670;-63.532;2023-03-19T16:02:52;21.60;99.90
44037;DHT22;62488;-37.670;-63.532;2023-03-19T16:05:29;21.80;99.90
44037;DHT22;62488;-37.670;-63.532;2023-03-19T16:10:47;23.00;99.90
44037;DHT22;62488;-37.670;-63.532;2023-03-19T16:13:30;22.30;99.90
44037;DHT22;62488;-37.670;-63.532;2023-03-19T16:16:04;21.90;99.90
44037;DHT22;62488;-37.670;-63.532;2023-03-19T16:18:50;21.80;99.90
44037;DHT22;62488;-37.670;-63.532;2023-03-19T16:21:27;22.70;99.90
44037;DHT22;62488;-37.670;-63.532;2023-03-19T16:24:02;23.00;99.90
44037;DHT22;62488;-37.670;-63.532;2023-03-19T16:26:37;23.40;99.90
44037;DHT22;62488;-37.670;-63.532;2023-03-19T16:31:44;23.20;99.90
44037;DHT22;62488;-37.670;-63.532;2023-03-19T16:36:52;22.00;99.90
44037;DHT22;62488;-37.670;-63.532;2023-03-19T16:39:30;21.60;99.90
44037;DHT22;62488;-37.670;-63.532;2023-03-19T16:42:16;21.50;99.90
44037;DHT22;62488;-37.670;-63.532;2023-03-19T16:44:51;21.60;99.90
44037;DHT22;62488;-37.670;-63.532;2023-03-19T16:47:18;21.70;99.90
44037;DHT22;62488;-37.670;-63.532;2023-03-19T16:49:46;21.50;99.90
44037;DHT22;62488;-37.670;-63.532;2023-03-19T16:52:21;21.40;99.90
44037;DHT22;62488;-37.670;-63.532;2023-03-19T16:54:49;21.30;99.90
44037;DHT22;62488;-37.670;-63.532;2023-03-19T16:57:18;21.30;99.90
44037;DHT22;62488;-37.670;-63.532;2023-03-19T16:59:45;21.40;99.90
44037;DHT22;62488;-37.670;-63.532;2023-03-19T17:02:14;21.50;99.90
44037;DHT22;62488;-37.670;-63.532;2023-03-19T17:04:42;21.40;99.90
44037;DHT22;62488;-37.670;-63.532;2023-03-19T17:07:10;21.30;99.90
44037;DHT22;62488;-37.670;-63.532;2023-03-19T17:09:37;21.30;99.90
44037;DHT22;62488;-37.670;-63.532;2023-03-19T17:12:06;21.30;99.90
44037;DHT22;62488;-37.670;-63.532;2023-03-19T17:14:34;21.20;99.90
44037;DHT22;62488;-37.670;-63.532;2023-03-19T17:17:01;21.10;99.90
44037;DHT22;62488;-37.670;-63.532;2023-03-19T17:19:34;21.10;99.90
44037;DHT22;62488;-37.670;-63.532;2023-03-19T17:22:02;21.10;99.90
44037;DHT22;62488;-37.670;-63.532;2023-03-19T17:24:33;21.30;99.90
44037;DHT22;62488;-37.670;-63.532;2023-03-19T17:27:02;21.60;99.90
44037;DHT22;62488;-37.670;-63.532;2023-03-19T17:41:33;21.70;99.90
44037;DHT22;62488;-37.670;-63.532;2023-03-19T17:44:00;21.80;99.90
44037;DHT22;62488;-37.670;-63.532;2023-03-19T17:46:28;22.20;99.90
44037;DHT22;62488;-37.670;-63.532;2023-03-19T17:48:55;22.30;99.90
44037;DHT22;62488;-37.670;-63.532;2023-03-19T17:51:23;22.50;99.90
44037;DHT22;62488;-37.670;-63.532;2023-03-19T17:53:52;23.40;99.90
44037;DHT22;62488;-37.670;-63.532;2023-03-19T17:56:20;23.40;99.90
44037;DHT22;62488;-37.670;-63.532;2023-03-19T17:58:48;23.30;99.90
44037;DHT22;62488;-37.670;-63.532;2023-03-19T18:01:26;23.40;99.90
44037;DHT22;62488;-37.670;-63.532;2023-03-19T18:03:54;23.00;99.90
44037;DHT22;62488;-37.670;-63.532;2023-03-19T18:06:25;23.20;99.90